sensor_id;sensor_type;location;lat;lon;timestamp;P1;durP1;ratioP1;P2;durP2;ratioP2
48578;SDS011;34357;51.948;6.132;2023-04-02T00:08:59;19.45;;;14.18;;
48578;SDS011;34357;51.948;6.132;2023-04-02T00:11:33;18.95;;;14.35;;
48578;SDS011;34357;51.948;6.132;2023-04-02T00:16:28;19.35;;;16.60;;
48578;SDS011;34357;51.948;6.132;2023-04-02T00:18:55;18.73;;;15.95;;
48578;SDS011;34357;51.948;6.132;2023-04-02T00:21:31;18.55;;;13.90;;
48578;SDS011;34357;51.948;6.132;2023-04-02T00:24:00;15.38;;;12.90;;
48578;SDS011;34357;51.948;6.132;2023-04-02T00:28:59;17.58;;;11.73;;
48578;SDS011;34357;51.948;6.132;2023-04-02T00:31:26;15.75;;;11.60;;
48578;SDS011;34357;51.948;6.132;2023-04-02T00:33:52;16.20;;;10.65;;
48578;SDS011;34357;51.948;6.132;2023-04-02T00:36:19;16.98;;;11.05;;
48578;SDS011;34357;51.948;6.132;2023-04-02T00:38:46;17.05;;;10.73;;
48578;SDS011;34357;51.948;6.132;2023-04-02T00:41:18;15.65;;;10.77;;
48578;SDS011;34357;51.948;6.132;2023-04-02T00:43:48;15.52;;;11.65;;
48578;SDS011;34357;51.948;6.132;2023-04-02T00:46:22;13.90;;;10.63;;
48578;SDS011;34357;51.948;6.132;2023-04-02T00:48:59;11.90;;;10.68;;
48578;SDS011;34357;51.948;6.132;2023-04-02T00:51:31;12.85;;;9.63;;
48578;SDS011;34357;51.948;6.132;2023-04-02T00:54:18;12.65;;;9.13;;
48578;SDS011;34357;51.948;6.132;2023-04-02T00:56:47;11.45;;;8.10;;
48578;SDS011;34357;51.948;6.132;2023-04-02T00:59:27;11.27;;;8.25;;
48578;SDS011;34357;51.948;6.132;2023-04-02T01:01:59;9.82;;;7.53;;
48578;SDS011;34357;51.948;6.132;2023-04-02T01:04:41;8.65;;;7.72;;
48578;SDS011;34357;51.948;6.132;2023-04-02T01:12:47;15.10;;;8.27;;
48578;SDS011;34357;51.948;6.132;2023-04-02T01:15:29;11.25;;;7.97;;
48578;SDS011;34357;51.948;6.132;2023-04-02T01:20:50;8.75;;;7.85;;
48578;SDS011;34357;51.948;6.132;2023-04-02T01:23:22;10.52;;;8.10;;
48578;SDS011;34357;51.948;6.132;2023-04-02T01:29:07;12.05;;;8.05;;
48578;SDS011;34357;51.948;6.132;2023-04-02T01:31:38;9.88;;;8.48;;
48578;SDS011;34357;51.948;6.132;2023-04-02T01:34:10;10.40;;;8.10;;
48578;SDS011;34357;51.948;6.132;2023-04-02T01:36:40;11.25;;;8.27;;
48578;SDS011;34357;51.948;6.132;2023-04-02T01:39:30;12.70;;;9.05;;
48578;SDS011;34357;51.948;6.132;2023-04-02T01:42:26;15.38;;;11.77;;
48578;SDS011;34357;51.948;6.132;2023-04-02T01:45:04;16.27;;;12.35;;
48578;SDS011;34357;51.948;6.132;2023-04-02T01:47:34;15.65;;;12.68;;
48578;SDS011;34357;51.948;6.132;2023-04-02T01:50:03;17.52;;;12.25;;
48578;SDS011;34357;51.948;6.132;2023-04-02T01:52:41;14.25;;;12.30;;
48578;SDS011;34357;51.948;6.132;2023-04-02T01:55:11;18.42;;;13.02;;
48578;SDS011;34357;51.948;6.132;2023-04-02T01:57:42;18.48;;;12.80;;
48578;SDS011;34357;51.948;6.132;2023-04-02T02:00:12;16.52;;;12.52;;
48578;SDS011;34357;51.948;6.132;2023-04-02T02:02:42;17.33;;;11.65;;
48578;SDS011;34357;51.948;6.132;2023-04-02T02:05:13;16.15;;;11.52;;
48578;SDS011;34357;51.948;6.132;2023-04-02T02:07:43;14.77;;;11.68;;
48578;SDS011;34357;51.948;6.132;2023-04-02T02:10:13;15.00;;;12.05;;
48578;SDS011;34357;51.948;6.132;2023-04-02T02:12:44;15.25;;;11.95;;
48578;SDS011;34357;51.948;6.132;2023-04-02T02:15:13;14.02;;;11.88;;
48578;SDS011;34357;51.948;6.132;2023-04-02T02:17:41;16.00;;;11.85;;
48578;SDS011;34357;51.948;6.132;2023-04-02T02:20:07;18.45;;;12.48;;
48578;SDS011;34357;51.948;6.132;2023-04-02T02:22:35;16.80;;;12.80;;
48578;SDS011;34357;51.948;6.132;2023-04-02T02:25:05;18.33;;;11.75;;
48578;SDS011;34357;51.948;6.132;2023-04-02T02:32:59;15.88;;;11.77;;
48578;SDS011;34357;51.948;6.132;2023-04-02T02:36:01;13.82;;;10.40;;
48578;SDS011;34357;51.948;6.132;2023-04-02T02:43:55;14.65;;;10.32;;
48578;SDS011;34357;51.948;6.132;2023-04-02T02:46:24;13.38;;;11.40;;
48578;SDS011;34357;51.948;6.132;2023-04-02T02:48:53;16.60;;;10.82;;
48578;SDS011;34357;51.948;6.132;2023-04-02T02:51:23;15.38;;;11.25;;
48578;SDS011;34357;51.948;6.132;2023-04-02T02:54:18;15.82;;;10.32;;
48578;SDS011;34357;51.948;6.132;2023-04-02T02:56:46;15.00;;;9.85;;
48578;SDS011;34357;51.948;6.132;2023-04-02T02:59:22;13.45;;;9.70;;
48578;SDS011;34357;51.948;6.132;2023-04-02T03:01:49;14.45;;;9.35;;
48578;SDS011;34357;51.948;6.132;2023-04-02T03:04:20;13.25;;;9.73;;
48578;SDS011;34357;51.948;6.132;2023-04-02T03:06:51;14.85;;;9.30;;
48578;SDS011;34357;51.948;6.132;2023-04-02T03:14:55;19.58;;;9.57;;
48578;SDS011;34357;51.948;6.132;2023-04-02T03:17:32;14.45;;;8.98;;
48578;SDS011;34357;51.948;6.132;2023-04-02T03:20:13;13.48;;;9.43;;
48578;SDS011;34357;51.948;6.132;2023-04-02T03:25:26;14.23;;;8.50;;
48578;SDS011;34357;51.948;6.132;2023-04-02T03:28:04;15.27;;;9.38;;
48578;SDS011;34357;51.948;6.132;2023-04-02T03:30:41;10.35;;;8.15;;
48578;SDS011;34357;51.948;6.132;2023-04-02T03:33:31;10.52;;;7.80;;
48578;SDS011;34357;51.948;6.132;2023-04-02T03:42:09;16.63;;;7.35;;
48578;SDS011;34357;51.948;6.132;2023-04-02T03:47:42;13.75;;;7.47;;
48578;SDS011;34357;51.948;6.132;2023-04-02T03:52:48;8.90;;;6.32;;
48578;SDS011;34357;51.948;6.132;2023-04-02T03:55:16;10.70;;;6.68;;
48578;SDS011;34357;51.948;6.132;2023-04-02T03:57:53;10.68;;;7.00;;
48578;SDS011;34357;51.948;6.132;2023-04-02T04:00:35;10.65;;;6.32;;
48578;SDS011;34357;51.948;6.132;2023-04-02T04:03:23;10.63;;;7.28;;
48578;SDS011;34357;51.948;6.132;2023-04-02T04:05:56;12.32;;;7.20;;
48578;SDS011;34357;51.948;6.132;2023-04-02T04:08:29;11.15;;;6.75;;
48578;SDS011;34357;51.948;6.132;2023-04-02T04:11:12;12.85;;;6.60;;
48578;SDS011;34357;51.948;6.132;2023-04-02T04:14:05;8.98;;;6.20;;
48578;SDS011;34357;51.948;6.132;2023-04-02T04:16:47;10.55;;;7.95;;
48578;SDS011;34357;51.948;6.132;2023-04-02T04:22:26;13.17;;;9.00;;
48578;SDS011;34357;51.948;6.132;2023-04-02T04:25:28;15.35;;;10.88;;
48578;SDS011;34357;51.948;6.132;2023-04-02T04:31:12;15.25;;;10.02;;
48578;SDS011;34357;51.948;6.132;2023-04-02T04:33:49;16.50;;;9.60;;
48578;SDS011;34357;51.948;6.132;2023-04-02T04:38:56;14.85;;;8.52;;
48578;SDS011;34357;51.948;6.132;2023-04-02T04:41:32;19.77;;;9.63;;
48578;SDS011;34357;51.948;6.132;2023-04-02T04:44:05;13.85;;;7.95;;
48578;SDS011;34357;51.948;6.132;2023-04-02T04:46:45;11.85;;;7.47;;
48578;SDS011;34357;51.948;6.132;2023-04-02T04:49:26;15.20;;;8.45;;
48578;SDS011;34357;51.948;6.132;2023-04-02T04:51:58;16.38;;;7.72;;
48578;SDS011;34357;51.948;6.132;2023-04-02T04:54:44;13.55;;;7.43;;
48578;SDS011;34357;51.948;6.132;2023-04-02T05:00:27;15.27;;;6.68;;
48578;SDS011;34357;51.948;6.132;2023-04-02T05:03:01;13.40;;;6.38;;
48578;SDS011;34357;51.948;6.132;2023-04-02T05:05:41;8.85;;;5.15;;
48578;SDS011;34357;51.948;6.132;2023-04-02T05:08:16;11.93;;;5.75;;
48578;SDS011;34357;51.948;6.132;2023-04-02T05:10:48;11.82;;;5.32;;
48578;SDS011;34357;51.948;6.132;2023-04-02T05:13:21;8.68;;;4.90;;
48578;SDS011;34357;51.948;6.132;2023-04-02T05:26:32;9.73;;;4.55;;
48578;SDS011;34357;51.948;6.132;2023-04-02T05:29:08;9.13;;;4.30;;
48578;SDS011;34357;51.948;6.132;2023-04-02T05:34:42;7.13;;;3.55;;
48578;SDS011;34357;51.948;6.132;2023-04-02T05:37:15;9.85;;;4.72;;
48578;SDS011;34357;51.948;6.132;2023-04-02T05:39:47;9.35;;;3.65;;
48578;SDS011;34357;51.948;6.132;2023-04-02T05:42:21;9.27;;;4.50;;
48578;SDS011;34357;51.948;6.132;2023-04-02T05:47:41;9.70;;;4.30;;
48578;SDS011;34357;51.948;6.132;2023-04-02T05:52:47;7.75;;;3.47;;
48578;SDS011;34357;51.948;6.132;2023-04-02T05:55:26;9.95;;;2.83;;
48578;SDS011;34357;51.948;6.132;2023-04-02T05:57:58;7.15;;;2.85;;
48578;SDS011;34357;51.948;6.132;2023-04-02T06:03:20;6.07;;;2.60;;
48578;SDS011;34357;51.948;6.132;2023-04-02T06:05:54;5.55;;;2.60;;
48578;SDS011;34357;51.948;6.132;2023-04-02T06:08:28;9.02;;;2.95;;
48578;SDS011;34357;51.948;6.132;2023-04-02T06:11:03;8.35;;;2.88;;
48578;SDS011;34357;51.948;6.132;2023-04-02T06:13:36;7.85;;;2.25;;
48578;SDS011;34357;51.948;6.132;2023-04-02T06:16:04;8.93;;;3.05;;
48578;SDS011;34357;51.948;6.132;2023-04-02T06:18:32;6.75;;;2.20;;
48578;SDS011;34357;51.948;6.132;2023-04-02T06:21:01;9.63;;;2.75;;
48578;SDS011;34357;51.948;6.132;2023-04-02T06:29:07;11.40;;;2.60;;
48578;SDS011;34357;51.948;6.132;2023-04-02T06:31:59;8.57;;;2.95;;
48578;SDS011;34357;51.948;6.132;2023-04-02T06:34:27;6.05;;;2.78;;
48578;SDS011;34357;51.948;6.132;2023-04-02T06:37:44;8.98;;;2.90;;
48578;SDS011;34357;51.948;6.132;2023-04-02T06:42:51;6.47;;;2.30;;
48578;SDS011;34357;51.948;6.132;2023-04-02T06:45:42;8.38;;;2.13;;
48578;SDS011;34357;51.948;6.132;2023-04-02T06:48:33;7.87;;;2.33;;
48578;SDS011;34357;51.948;6.132;2023-04-02T06:51:06;8.98;;;2.53;;
48578;SDS011;34357;51.948;6.132;2023-04-02T06:53:37;4.18;;;2.22;;
48578;SDS011;34357;51.948;6.132;2023-04-02T06:56:18;10.27;;;2.53;;
48578;SDS011;34357;51.948;6.132;2023-04-02T06:58:46;8.07;;;2.37;;
48578;SDS011;34357;51.948;6.132;2023-04-02T07:01:17;4.65;;;2.10;;
48578;SDS011;34357;51.948;6.132;2023-04-02T07:03:47;5.45;;;2.63;;
48578;SDS011;34357;51.948;6.132;2023-04-02T07:06:20;8.48;;;2.30;;
48578;SDS011;34357;51.948;6.132;2023-04-02T07:08:48;8.52;;;2.55;;
48578;SDS011;34357;51.948;6.132;2023-04-02T07:11:17;7.72;;;2.10;;
48578;SDS011;34357;51.948;6.132;2023-04-02T07:13:46;8.57;;;2.70;;
48578;SDS011;34357;51.948;6.132;2023-04-02T07:16:20;7.80;;;2.00;;
48578;SDS011;34357;51.948;6.132;2023-04-02T07:18:50;8.13;;;2.63;;
48578;SDS011;34357;51.948;6.132;2023-04-02T07:21:17;5.90;;;2.30;;
48578;SDS011;34357;51.948;6.132;2023-04-02T07:23:43;6.05;;;2.13;;
48578;SDS011;34357;51.948;6.132;2023-04-02T07:26:13;8.52;;;2.42;;
48578;SDS011;34357;51.948;6.132;2023-04-02T07:28:44;5.57;;;2.17;;
48578;SDS011;34357;51.948;6.132;2023-04-02T07:31:14;5.15;;;2.40;;
48578;SDS011;34357;51.948;6.132;2023-04-02T07:33:57;5.97;;;2.22;;
48578;SDS011;34357;51.948;6.132;2023-04-02T07:36:25;4.80;;;2.28;;
48578;SDS011;34357;51.948;6.132;2023-04-02T07:38:53;6.70;;;1.95;;
48578;SDS011;34357;51.948;6.132;2023-04-02T07:41:18;5.47;;;2.10;;
48578;SDS011;34357;51.948;6.132;2023-04-02T07:43:45;9.80;;;2.42;;
48578;SDS011;34357;51.948;6.132;2023-04-02T07:46:12;7.47;;;2.30;;
48578;SDS011;34357;51.948;6.132;2023-04-02T07:48:40;7.28;;;2.60;;
48578;SDS011;34357;51.948;6.132;2023-04-02T07:51:17;8.13;;;2.42;;
48578;SDS011;34357;51.948;6.132;2023-04-02T07:53:50;5.93;;;2.15;;
48578;SDS011;34357;51.948;6.132;2023-04-02T07:56:20;8.25;;;2.38;;
48578;SDS011;34357;51.948;6.132;2023-04-02T07:58:47;6.38;;;2.15;;
48578;SDS011;34357;51.948;6.132;2023-04-02T08:01:23;5.43;;;2.08;;
48578;SDS011;34357;51.948;6.132;2023-04-02T08:03:50;6.13;;;2.45;;
48578;SDS011;34357;51.948;6.132;2023-04-02T08:06:18;6.60;;;2.40;;
48578;SDS011;34357;51.948;6.132;2023-04-02T08:08:44;6.57;;;2.30;;
48578;SDS011;34357;51.948;6.132;2023-04-02T08:11:10;6.25;;;2.55;;
48578;SDS011;34357;51.948;6.132;2023-04-02T08:13:36;4.40;;;1.83;;
48578;SDS011;34357;51.948;6.132;2023-04-02T08:16:03;4.75;;;1.92;;
48578;SDS011;34357;51.948;6.132;2023-04-02T08:18:29;5.30;;;1.73;;
48578;SDS011;34357;51.948;6.132;2023-04-02T08:20:55;6.25;;;1.98;;
48578;SDS011;34357;51.948;6.132;2023-04-02T08:23:22;6.05;;;2.03;;
48578;SDS011;34357;51.948;6.132;2023-04-02T08:25:48;5.32;;;2.20;;
48578;SDS011;34357;51.948;6.132;2023-04-02T08:28:14;5.70;;;1.70;;
48578;SDS011;34357;51.948;6.132;2023-04-02T08:30:41;6.43;;;1.90;;
48578;SDS011;34357;51.948;6.132;2023-04-02T08:33:07;5.72;;;1.55;;
48578;SDS011;34357;51.948;6.132;2023-04-02T08:35:33;5.55;;;1.92;;
48578;SDS011;34357;51.948;6.132;2023-04-02T08:37:59;4.05;;;1.90;;
48578;SDS011;34357;51.948;6.132;2023-04-02T08:40:33;8.38;;;1.80;;
48578;SDS011;34357;51.948;6.132;2023-04-02T08:43:29;7.53;;;2.20;;
48578;SDS011;34357;51.948;6.132;2023-04-02T08:46:22;7.05;;;2.10;;
48578;SDS011;34357;51.948;6.132;2023-04-02T08:48:56;3.92;;;1.83;;
48578;SDS011;34357;51.948;6.132;2023-04-02T08:53:53;7.32;;;2.13;;
48578;SDS011;34357;51.948;6.132;2023-04-02T08:56:28;4.70;;;2.58;;
48578;SDS011;34357;51.948;6.132;2023-04-02T08:59:01;4.88;;;1.65;;
48578;SDS011;34357;51.948;6.132;2023-04-02T09:04:15;8.98;;;2.28;;
48578;SDS011;34357;51.948;6.132;2023-04-02T09:06:42;8.60;;;1.90;;
48578;SDS011;34357;51.948;6.132;2023-04-02T09:09:10;7.07;;;2.00;;
48578;SDS011;34357;51.948;6.132;2023-04-02T09:12:38;9.15;;;2.00;;
48578;SDS011;34357;51.948;6.132;2023-04-02T09:14:44;6.25;;;2.30;;
48578;SDS011;34357;51.948;6.132;2023-04-02T09:17:23;5.63;;;1.92;;
48578;SDS011;34357;51.948;6.132;2023-04-02T09:19:55;5.22;;;2.22;;
48578;SDS011;34357;51.948;6.132;2023-04-02T09:22:43;4.50;;;2.03;;
48578;SDS011;34357;51.948;6.132;2023-04-02T09:25:16;8.30;;;2.50;;
48578;SDS011;34357;51.948;6.132;2023-04-02T09:27:54;5.78;;;2.08;;
48578;SDS011;34357;51.948;6.132;2023-04-02T09:33:43;5.50;;;2.37;;
48578;SDS011;34357;51.948;6.132;2023-04-02T09:36:17;6.53;;;1.98;;
48578;SDS011;34357;51.948;6.132;2023-04-02T09:38:59;6.18;;;2.00;;
48578;SDS011;34357;51.948;6.132;2023-04-02T09:41:30;6.60;;;1.92;;
48578;SDS011;34357;51.948;6.132;2023-04-02T09:44:10;11.73;;;2.38;;
48578;SDS011;34357;51.948;6.132;2023-04-02T09:46:45;6.38;;;1.95;;
48578;SDS011;34357;51.948;6.132;2023-04-02T09:49:17;6.50;;;1.90;;
48578;SDS011;34357;51.948;6.132;2023-04-02T09:51:45;8.52;;;2.22;;
48578;SDS011;34357;51.948;6.132;2023-04-02T09:54:42;6.03;;;1.85;;
48578;SDS011;34357;51.948;6.132;2023-04-02T09:57:19;9.57;;;1.80;;
48578;SDS011;34357;51.948;6.132;2023-04-02T10:02:38;6.40;;;1.90;;
48578;SDS011;34357;51.948;6.132;2023-04-02T10:05:05;4.35;;;1.60;;
48578;SDS011;34357;51.948;6.132;2023-04-02T10:07:40;3.25;;;1.52;;
48578;SDS011;34357;51.948;6.132;2023-04-02T10:12:43;5.80;;;1.80;;
48578;SDS011;34357;51.948;6.132;2023-04-02T10:15:16;3.97;;;1.55;;
48578;SDS011;34357;51.948;6.132;2023-04-02T10:17:59;4.10;;;1.40;;
48578;SDS011;34357;51.948;6.132;2023-04-02T10:20:37;3.17;;;1.38;;
48578;SDS011;34357;51.948;6.132;2023-04-02T10:23:11;4.57;;;1.98;;
48578;SDS011;34357;51.948;6.132;2023-04-02T10:25:41;6.13;;;1.70;;
48578;SDS011;34357;51.948;6.132;2023-04-02T10:28:33;4.50;;;1.48;;
48578;SDS011;34357;51.948;6.132;2023-04-02T10:31:24;5.50;;;1.85;;
48578;SDS011;34357;51.948;6.132;2023-04-02T10:33:51;5.60;;;1.65;;
48578;SDS011;34357;51.948;6.132;2023-04-02T10:36:36;5.90;;;1.77;;
48578;SDS011;34357;51.948;6.132;2023-04-02T10:39:18;4.75;;;1.80;;
48578;SDS011;34357;51.948;6.132;2023-04-02T10:41:56;6.68;;;2.00;;
48578;SDS011;34357;51.948;6.132;2023-04-02T10:47:13;5.78;;;2.08;;
48578;SDS011;34357;51.948;6.132;2023-04-02T10:52:47;8.05;;;2.78;;
48578;SDS011;34357;51.948;6.132;2023-04-02T10:55:24;7.32;;;2.08;;
48578;SDS011;34357;51.948;6.132;2023-04-02T10:57:56;9.32;;;2.50;;
48578;SDS011;34357;51.948;6.132;2023-04-02T11:00:30;6.55;;;2.40;;
48578;SDS011;34357;51.948;6.132;2023-04-02T11:03:06;6.87;;;1.83;;
48578;SDS011;34357;51.948;6.132;2023-04-02T11:10:51;5.53;;;1.83;;
48578;SDS011;34357;51.948;6.132;2023-04-02T11:16:13;5.60;;;2.10;;
48578;SDS011;34357;51.948;6.132;2023-04-02T11:18:39;6.57;;;2.35;;
48578;SDS011;34357;51.948;6.132;2023-04-02T11:23:59;4.43;;;1.73;;
48578;SDS011;34357;51.948;6.132;2023-04-02T11:26:27;3.45;;;1.40;;
48578;SDS011;34357;51.948;6.132;2023-04-02T11:32:11;5.38;;;1.63;;
48578;SDS011;34357;51.948;6.132;2023-04-02T11:39:59;7.75;;;2.42;;
48578;SDS011;34357;51.948;6.132;2023-04-02T11:42:41;7.05;;;2.15;;
48578;SDS011;34357;51.948;6.132;2023-04-02T11:50:35;7.95;;;2.47;;
48578;SDS011;34357;51.948;6.132;2023-04-02T11:56:04;4.53;;;1.58;;
48578;SDS011;34357;51.948;6.132;2023-04-02T12:09:07;6.68;;;2.42;;
48578;SDS011;34357;51.948;6.132;2023-04-02T12:11:40;6.25;;;1.98;;
48578;SDS011;34357;51.948;6.132;2023-04-02T12:14:28;6.65;;;2.20;;
48578;SDS011;34357;51.948;6.132;2023-04-02T12:19:49;5.07;;;1.85;;
48578;SDS011;34357;51.948;6.132;2023-04-02T12:22:27;4.65;;;1.63;;
48578;SDS011;34357;51.948;6.132;2023-04-02T12:25:38;4.75;;;1.83;;
48578;SDS011;34357;51.948;6.132;2023-04-02T12:27:47;6.90;;;2.22;;
48578;SDS011;34357;51.948;6.132;2023-04-02T12:30:27;6.22;;;1.75;;
48578;SDS011;34357;51.948;6.132;2023-04-02T12:32:53;5.53;;;1.92;;
48578;SDS011;34357;51.948;6.132;2023-04-02T12:37:56;6.38;;;2.15;;
48578;SDS011;34357;51.948;6.132;2023-04-02T12:40:22;4.40;;;1.83;;
48578;SDS011;34357;51.948;6.132;2023-04-02T12:42:49;7.40;;;1.75;;
48578;SDS011;34357;51.948;6.132;2023-04-02T12:45:27;4.47;;;1.88;;
48578;SDS011;34357;51.948;6.132;2023-04-02T12:47:57;5.10;;;1.75;;
48578;SDS011;34357;51.948;6.132;2023-04-02T12:50:27;5.70;;;2.03;;
48578;SDS011;34357;51.948;6.132;2023-04-02T12:52:53;5.63;;;1.80;;
48578;SDS011;34357;51.948;6.132;2023-04-02T12:55:23;3.97;;;1.77;;
48578;SDS011;34357;51.948;6.132;2023-04-02T12:57:57;3.58;;;1.70;;
48578;SDS011;34357;51.948;6.132;2023-04-02T13:08:24;4.57;;;1.45;;
48578;SDS011;34357;51.948;6.132;2023-04-02T13:10:57;5.18;;;1.80;;
48578;SDS011;34357;51.948;6.132;2023-04-02T13:13:37;3.53;;;1.42;;
48578;SDS011;34357;51.948;6.132;2023-04-02T13:16:05;7.28;;;1.90;;
48578;SDS011;34357;51.948;6.132;2023-04-02T13:18:44;7.03;;;1.95;;
48578;SDS011;34357;51.948;6.132;2023-04-02T13:21:30;4.25;;;1.55;;
48578;SDS011;34357;51.948;6.132;2023-04-02T13:23:56;6.05;;;1.95;;
48578;SDS011;34357;51.948;6.132;2023-04-02T13:26:26;5.78;;;1.92;;
48578;SDS011;34357;51.948;6.132;2023-04-02T13:31:41;6.03;;;1.60;;
48578;SDS011;34357;51.948;6.132;2023-04-02T13:34:07;4.90;;;1.80;;
48578;SDS011;34357;51.948;6.132;2023-04-02T13:36:33;4.32;;;1.73;;
48578;SDS011;34357;51.948;6.132;2023-04-02T13:38:58;7.35;;;1.65;;
48578;SDS011;34357;51.948;6.132;2023-04-02T13:41:25;3.92;;;1.48;;
48578;SDS011;34357;51.948;6.132;2023-04-02T13:43:53;4.65;;;1.58;;
48578;SDS011;34357;51.948;6.132;2023-04-02T13:46:26;3.40;;;1.60;;
48578;SDS011;34357;51.948;6.132;2023-04-02T13:48:53;7.68;;;2.50;;
48578;SDS011;34357;51.948;6.132;2023-04-02T13:51:21;4.75;;;2.05;;
48578;SDS011;34357;51.948;6.132;2023-04-02T13:54:15;4.15;;;1.67;;
48578;SDS011;34357;51.948;6.132;2023-04-02T13:56:44;2.45;;;1.50;;
48578;SDS011;34357;51.948;6.132;2023-04-02T13:59:11;6.60;;;1.85;;
48578;SDS011;34357;51.948;6.132;2023-04-02T14:01:37;3.80;;;1.48;;
48578;SDS011;34357;51.948;6.132;2023-04-02T14:04:04;4.97;;;1.80;;
48578;SDS011;34357;51.948;6.132;2023-04-02T14:12:34;6.63;;;1.75;;
48578;SDS011;34357;51.948;6.132;2023-04-02T14:18:14;2.70;;;1.23;;
48578;SDS011;34357;51.948;6.132;2023-04-02T14:32:33;3.92;;;1.38;;
48578;SDS011;34357;51.948;6.132;2023-04-02T14:37:56;4.00;;;1.23;;
48578;SDS011;34357;51.948;6.132;2023-04-02T14:50:48;6.63;;;1.60;;
48578;SDS011;34357;51.948;6.132;2023-04-02T14:53:24;3.40;;;1.27;;
48578;SDS011;34357;51.948;6.132;2023-04-02T14:55:55;3.70;;;1.45;;
48578;SDS011;34357;51.948;6.132;2023-04-02T14:58:26;4.82;;;1.27;;
48578;SDS011;34357;51.948;6.132;2023-04-02T15:01:06;3.33;;;1.17;;
48578;SDS011;34357;51.948;6.132;2023-04-02T15:03:42;3.13;;;1.02;;
48578;SDS011;34357;51.948;6.132;2023-04-02T15:06:41;3.92;;;1.50;;
48578;SDS011;34357;51.948;6.132;2023-04-02T15:09:11;5.43;;;1.42;;
48578;SDS011;34357;51.948;6.132;2023-04-02T15:11:41;2.80;;;1.30;;
48578;SDS011;34357;51.948;6.132;2023-04-02T15:14:27;2.40;;;1.25;;
48578;SDS011;34357;51.948;6.132;2023-04-02T15:16:59;4.18;;;1.40;;
48578;SDS011;34357;51.948;6.132;2023-04-02T15:19:24;2.95;;;1.20;;
48578;SDS011;34357;51.948;6.132;2023-04-02T15:54:24;3.25;;;1.20;;
48578;SDS011;34357;51.948;6.132;2023-04-02T15:57:23;4.68;;;1.55;;
48578;SDS011;34357;51.948;6.132;2023-04-02T16:00:27;6.03;;;1.45;;
48578;SDS011;34357;51.948;6.132;2023-04-02T16:11:21;3.28;;;1.00;;
48578;SDS011;34357;51.948;6.132;2023-04-02T16:13:51;3.20;;;1.17;;
48578;SDS011;34357;51.948;6.132;2023-04-02T16:16:37;3.60;;;1.10;;
48578;SDS011;34357;51.948;6.132;2023-04-02T16:21:32;2.53;;;1.10;;
48578;SDS011;34357;51.948;6.132;2023-04-02T16:24:09;3.35;;;0.90;;
48578;SDS011;34357;51.948;6.132;2023-04-02T16:29:27;2.55;;;1.30;;
48578;SDS011;34357;51.948;6.132;2023-04-02T16:32:21;5.43;;;1.35;;
48578;SDS011;34357;51.948;6.132;2023-04-02T16:37:47;7.10;;;1.73;;
48578;SDS011;34357;51.948;6.132;2023-04-02T16:48:48;2.83;;;1.10;;
48578;SDS011;34357;51.948;6.132;2023-04-02T16:51:28;4.85;;;1.35;;
48578;SDS011;34357;51.948;6.132;2023-04-02T16:54:15;7.15;;;1.30;;
48578;SDS011;34357;51.948;6.132;2023-04-02T16:56:53;4.07;;;1.40;;
48578;SDS011;34357;51.948;6.132;2023-04-02T16:59:51;4.55;;;1.65;;
48578;SDS011;34357;51.948;6.132;2023-04-02T17:02:55;6.72;;;1.80;;
48578;SDS011;34357;51.948;6.132;2023-04-02T17:08:41;5.97;;;1.77;;
48578;SDS011;34357;51.948;6.132;2023-04-02T17:11:09;7.90;;;2.72;;
48578;SDS011;34357;51.948;6.132;2023-04-02T17:13:53;3.90;;;1.83;;
48578;SDS011;34357;51.948;6.132;2023-04-02T17:19:04;7.47;;;2.33;;
48578;SDS011;34357;51.948;6.132;2023-04-02T17:21:34;4.47;;;2.08;;
48578;SDS011;34357;51.948;6.132;2023-04-02T17:24:09;6.07;;;1.75;;
48578;SDS011;34357;51.948;6.132;2023-04-02T17:26:44;6.03;;;1.90;;
48578;SDS011;34357;51.948;6.132;2023-04-02T17:29:16;4.10;;;1.52;;
48578;SDS011;34357;51.948;6.132;2023-04-02T17:32:05;4.07;;;1.23;;
48578;SDS011;34357;51.948;6.132;2023-04-02T17:34:40;5.38;;;1.67;;
48578;SDS011;34357;51.948;6.132;2023-04-02T17:46:00;6.20;;;2.50;;
48578;SDS011;34357;51.948;6.132;2023-04-02T17:48:46;4.22;;;1.60;;
48578;SDS011;34357;51.948;6.132;2023-04-02T17:51:34;5.35;;;1.73;;
48578;SDS011;34357;51.948;6.132;2023-04-02T18:08:32;8.02;;;2.80;;
48578;SDS011;34357;51.948;6.132;2023-04-02T18:16:36;4.10;;;1.50;;
48578;SDS011;34357;51.948;6.132;2023-04-02T18:30:02;9.52;;;3.28;;
48578;SDS011;34357;51.948;6.132;2023-04-02T18:46:24;4.63;;;1.90;;
48578;SDS011;34357;51.948;6.132;2023-04-02T18:48:56;5.40;;;2.40;;
48578;SDS011;34357;51.948;6.132;2023-04-02T18:51:25;13.75;;;9.32;;
48578;SDS011;34357;51.948;6.132;2023-04-02T18:56:32;6.00;;;4.10;;
48578;SDS011;34357;51.948;6.132;2023-04-02T19:05:07;4.75;;;2.70;;
48578;SDS011;34357;51.948;6.132;2023-04-02T19:07:37;6.88;;;3.10;;
48578;SDS011;34357;51.948;6.132;2023-04-02T19:10:30;5.93;;;3.10;;
48578;SDS011;34357;51.948;6.132;2023-04-02T19:12:57;8.27;;;5.30;;
48578;SDS011;34357;51.948;6.132;2023-04-02T19:24:12;9.27;;;5.20;;
48578;SDS011;34357;51.948;6.132;2023-04-02T19:37:53;8.55;;;4.32;;
48578;SDS011;34357;51.948;6.132;2023-04-02T19:43:24;8.32;;;4.53;;
48578;SDS011;34357;51.948;6.132;2023-04-02T19:45:50;8.18;;;4.72;;
48578;SDS011;34357;51.948;6.132;2023-04-02T19:48:23;12.55;;;5.15;;
48578;SDS011;34357;51.948;6.132;2023-04-02T19:50:50;9.57;;;4.82;;
48578;SDS011;34357;51.948;6.132;2023-04-02T19:53:17;8.00;;;4.50;;
48578;SDS011;34357;51.948;6.132;2023-04-02T19:55:44;11.20;;;4.72;;
48578;SDS011;34357;51.948;6.132;2023-04-02T20:00:57;15.45;;;6.70;;
48578;SDS011;34357;51.948;6.132;2023-04-02T20:03:24;8.63;;;5.32;;
48578;SDS011;34357;51.948;6.132;2023-04-02T20:05:49;10.98;;;5.15;;
48578;SDS011;34357;51.948;6.132;2023-04-02T20:08:15;10.15;;;5.60;;
48578;SDS011;34357;51.948;6.132;2023-04-02T20:10:41;10.13;;;5.45;;
48578;SDS011;34357;51.948;6.132;2023-04-02T20:13:07;16.02;;;5.38;;
48578;SDS011;34357;51.948;6.132;2023-04-02T20:15:33;9.32;;;5.38;;
48578;SDS011;34357;51.948;6.132;2023-04-02T20:17:59;7.38;;;3.88;;
48578;SDS011;34357;51.948;6.132;2023-04-02T20:20:25;7.97;;;3.53;;
48578;SDS011;34357;51.948;6.132;2023-04-02T20:22:51;7.63;;;3.97;;
48578;SDS011;34357;51.948;6.132;2023-04-02T20:25:16;8.75;;;3.70;;
48578;SDS011;34357;51.948;6.132;2023-04-02T20:27:42;5.68;;;2.88;;
48578;SDS011;34357;51.948;6.132;2023-04-02T20:30:08;4.40;;;2.30;;
48578;SDS011;34357;51.948;6.132;2023-04-02T20:32:34;6.30;;;3.25;;
48578;SDS011;34357;51.948;6.132;2023-04-02T20:35:01;5.18;;;2.67;;
48578;SDS011;34357;51.948;6.132;2023-04-02T20:37:27;5.13;;;2.90;;
48578;SDS011;34357;51.948;6.132;2023-04-02T20:39:53;7.60;;;2.78;;
48578;SDS011;34357;51.948;6.132;2023-04-02T20:42:20;7.80;;;3.20;;
48578;SDS011;34357;51.948;6.132;2023-04-02T20:44:46;6.75;;;3.60;;
48578;SDS011;34357;51.948;6.132;2023-04-02T20:47:12;6.68;;;3.83;;
48578;SDS011;34357;51.948;6.132;2023-04-02T20:49:38;12.88;;;7.63;;
48578;SDS011;34357;51.948;6.132;2023-04-02T20:52:03;14.40;;;8.10;;
48578;SDS011;34357;51.948;6.132;2023-04-02T20:54:29;16.30;;;8.50;;
48578;SDS011;34357;51.948;6.132;2023-04-02T20:56:55;10.13;;;6.18;;
48578;SDS011;34357;51.948;6.132;2023-04-02T20:59:21;9.35;;;5.15;;
48578;SDS011;34357;51.948;6.132;2023-04-02T21:01:47;10.27;;;4.50;;
48578;SDS011;34357;51.948;6.132;2023-04-02T21:04:12;6.93;;;3.97;;
48578;SDS011;34357;51.948;6.132;2023-04-02T21:06:39;6.65;;;3.83;;
48578;SDS011;34357;51.948;6.132;2023-04-02T21:09:06;7.82;;;4.07;;
48578;SDS011;34357;51.948;6.132;2023-04-02T21:11:36;6.90;;;4.32;;
48578;SDS011;34357;51.948;6.132;2023-04-02T21:14:02;7.82;;;4.20;;
48578;SDS011;34357;51.948;6.132;2023-04-02T21:16:28;7.35;;;3.10;;